Time;durP1;ratioP1;P1;durP2;ratioP2;P2;SDS_P1;SDS_P2;PMS_P1;PMS_P2;Temp;Humidity;BMP_temperature;BMP_pressure;BME280_temperature;BME280_humidity;BME280_pressure;Samples;Min_cycle;Max_cycle;Signal;HPM_P1;HPM_P2
2022/07/19 00:00:21;;;;;;;9.57;4.00;;;30.50;38.80;;;;;;7380772;19;20014;-83
2022/07/19 00:02:52;;;;;;;8.02;3.35;;;30.50;38.30;;;;;;7403474;19;20433;-83
2022/07/19 00:05:21;;;;;;;8.95;3.53;;;30.40;38.10;;;;;;7378645;19;20088;-84
2022/07/19 00:07:50;;;;;;;6.95;3.00;;;30.40;38.10;;;;;;7381968;19;20497;-83
2022/07/19 00:10:22;;;;;;;9.85;3.00;;;30.30;38.10;;;;;;7382059;19;20347;-83
2022/07/19 00:12:51;;;;;;;6.38;3.20;;;30.30;38.30;;;;;;7384720;19;20006;-83
2022/07/19 00:15:20;;;;;;;8.98;3.78;;;30.30;38.70;;;;;;7385217;19;20070;-84
2022/07/19 00:17:52;;;;;;;12.43;3.60;;;30.30;39.10;;;;;;7408260;19;20006;-83
2022/07/19 00:20:24;;;;;;;9.82;3.67;;;30.30;38.70;;;;;;7383804;19;20026;-83
2022/07/19 00:22:52;;;;;;;11.35;4.28;;;30.30;39.00;;;;;;7388169;19;20027;-84
2022/07/19 00:25:21;;;;;;;12.10;3.80;;;30.20;38.60;;;;;;7386501;19;20010;-84
2022/07/19 00:27:50;;;;;;;12.10;3.08;;;30.20;38.90;;;;;;7383198;19;20649;-83
2022/07/19 00:30:19;;;;;;;8.38;3.72;;;30.10;38.10;;;;;;7380942;19;20044;-83
2022/07/19 00:32:48;;;;;;;7.90;3.40;;;30.10;38.50;;;;;;7403593;19;20110;-83
2022/07/19 00:35:23;;;;;;;11.38;3.97;;;30.10;38.60;;;;;;7381766;19;20035;-83
2022/07/19 00:37:51;;;;;;;13.48;3.50;;;30.10;38.70;;;;;;7384117;19;20114;-84
2022/07/19 00:40:25;;;;;;;9.98;3.05;;;30.10;38.80;;;;;;7381915;19;20019;-83
2022/07/19 00:42:54;;;;;;;6.40;3.63;;;30.00;39.20;;;;;;7384873;19;20019;-83
2022/07/19 00:45:23;;;;;;;10.57;3.20;;;30.00;39.20;;;;;;7381702;19;20014;-83
2022/07/19 00:47:52;;;;;;;8.20;3.20;;;30.00;39.30;;;;;;7406172;19;20460;-84
2022/07/19 00:50:25;;;;;;;11.52;3.40;;;30.00;39.70;;;;;;7382370;19;20010;-83
2022/07/19 00:52:56;;;;;;;10.07;3.40;;;30.00;39.80;;;;;;7382999;19;20363;-82
2022/07/19 00:55:26;;;;;;;;;;;29.90;40.00;;;;;;7385712;19;20036;-84
2022/07/19 00:57:57;;;;;;;7.28;3.28;;;29.90;40.20;;;;;;7382404;19;19915;-83
2022/07/19 01:00:26;;;;;;;;;;;29.90;40.20;;;;;;7385576;19;20129;-83
2022/07/19 01:02:55;;;;;;;8.48;4.00;;;29.90;40.20;;;;;;7405428;19;19911;-83
2022/07/19 01:05:26;;;;;;;9.50;4.20;;;29.90;40.20;;;;;;7383970;19;20018;-84
2022/07/19 01:07:55;;;;;;;9.80;3.97;;;29.80;40.50;;;;;;7385286;19;20038;-84
2022/07/19 01:10:24;;;;;;;9.68;3.88;;;29.80;41.10;;;;;;7386079;19;20011;-83
2022/07/19 01:12:54;;;;;;;12.45;3.63;;;29.80;40.60;;;;;;7377770;19;20102;-83
2022/07/19 01:15:25;;;;;;;11.02;3.70;;;29.80;40.40;;;;;;7382105;19;20408;-83
2022/07/19 01:17:55;;;;;;;7.80;3.10;;;29.80;39.80;;;;;;7395432;19;20035;-83
2022/07/19 01:20:27;;;;;;;8.73;3.20;;;29.70;39.90;;;;;;7376357;19;20105;-83
2022/07/19 01:22:59;;;;;;;9.95;3.47;;;29.70;39.70;;;;;;7376893;19;20035;-83
2022/07/19 01:25:31;;;;;;;12.90;3.05;;;29.60;39.90;;;;;;7377351;19;20390;-83
2022/07/19 01:28:01;;;;;;;7.57;2.90;;;29.50;40.20;;;;;;7374363;19;20025;-83
2022/07/19 01:30:30;;;;;;;7.70;2.85;;;29.40;40.40;;;;;;7377222;19;20093;-83
2022/07/19 01:32:59;;;;;;;11.15;3.20;;;29.40;40.40;;;;;;7400504;19;20026;-83
2022/07/19 01:35:28;;;;;;;5.68;2.88;;;29.40;40.50;;;;;;7375681;19;20049;-83
2022/07/19 01:38:00;;;;;;;13.13;3.05;;;29.30;40.70;;;;;;7375236;19;20629;-83
2022/07/19 01:40:29;;;;;;;7.40;2.65;;;29.30;40.70;;;;;;7377228;19;20015;-83
2022/07/19 01:42:58;;;;;;;7.00;2.78;;;29.30;40.60;;;;;;7376625;19;20876;-83
2022/07/19 01:45:27;;;;;;;8.98;2.72;;;29.40;40.70;;;;;;7375262;19;20035;-83
2022/07/19 01:47:55;;;;;;;12.25;2.70;;;29.30;40.50;;;;;;7391416;19;20085;-84
2022/07/19 01:50:25;;;;;;;7.65;2.85;;;29.30;40.30;;;;;;7377470;19;20430;-84
2022/07/19 01:52:54;;;;;;;11.73;2.90;;;29.30;40.30;;;;;;7377250;19;20014;-85
2022/07/19 01:55:26;;;;;;;8.55;2.67;;;29.30;40.40;;;;;;7376701;19;20058;-84
2022/07/19 01:57:55;;;;;;;8.07;2.95;;;29.20;40.50;;;;;;7376973;19;20010;-84
2022/07/19 02:00:24;;;;;;;9.95;3.05;;;29.20;40.80;;;;;;7373376;19;20081;-84
2022/07/19 02:02:52;;;;;;;11.50;3.15;;;29.10;40.90;;;;;;7396953;19;20079;-84
2022/07/19 02:05:21;;;;;;;8.10;3.58;;;29.10;40.90;;;;;;7374450;19;20032;-83
2022/07/19 02:07:50;;;;;;;5.47;2.72;;;29.10;40.60;;;;;;7376078;19;20085;-83
2022/07/19 02:10:20;;;;;;;11.02;3.40;;;29.00;40.80;;;;;;7374839;19;20022;-84
2022/07/19 02:12:51;;;;;;;8.02;2.70;;;29.00;41.10;;;;;;7375438;19;20323;-83
2022/07/19 02:15:20;;;;;;;12.68;3.10;;;29.00;41.30;;;;;;7374742;19;20015;-84
2022/07/19 02:17:49;;;;;;;6.38;3.00;;;29.00;41.90;;;;;;7396708;19;20023;-83
2022/07/19 02:20:17;;;;;;;11.00;3.00;;;29.00;41.90;;;;;;7373691;19;20522;-83
2022/07/19 02:22:46;;;;;;;5.50;3.30;;;28.90;41.90;;;;;;7375744;19;20022;-83
2022/07/19 02:25:15;;;;;;;7.57;3.42;;;28.90;42.40;;;;;;7376407;19;20781;-84
2022/07/19 02:27:44;;;;;;;9.43;3.75;;;28.80;41.90;;;;;;7374371;19;20089;-83
2022/07/19 02:30:17;;;;;;;9.13;2.80;;;28.80;41.60;;;;;;7395387;19;20081;-84
2022/07/19 02:32:46;;;;;;;7.20;2.30;;;28.80;41.30;;;;;;7374830;19;20007;-83
2022/07/19 02:35:16;;;;;;;10.93;3.00;;;28.70;41.80;;;;;;7373324;19;20049;-82
2022/07/19 02:37:45;;;;;;;10.18;2.97;;;28.70;41.70;;;;;;7375093;19;20014;-83
2022/07/19 02:40:14;;;;;;;6.85;2.85;;;28.70;41.70;;;;;;7373507;19;20324;-83
2022/07/19 02:42:43;;;;;;;8.07;2.53;;;28.70;41.90;;;;;;7373023;19;20090;-84
2022/07/19 02:45:15;;;;;;;4.63;2.67;;;28.70;42.00;;;;;;7396809;19;20326;-84
2022/07/19 02:47:43;;;;;;;9.10;3.10;;;28.70;42.00;;;;;;7372249;19;20434;-83
2022/07/19 02:50:12;;;;;;;6.05;2.80;;;28.60;42.10;;;;;;7373819;19;20023;-84
2022/07/19 02:52:41;;;;;;;13.45;3.47;;;28.60;42.20;;;;;;7376394;19;20070;-83
2022/07/19 02:55:11;;;;;;;9.25;3.20;;;28.50;41.50;;;;;;7374381;19;20025;-83
2022/07/19 02:57:40;;;;;;;7.03;3.15;;;28.50;42.20;;;;;;7374173;19;20022;-83
2022/07/19 03:00:12;;;;;;;13.40;2.97;;;28.50;42.60;;;;;;7394024;19;20089;-83
2022/07/19 03:02:54;;;;;;;8.30;3.10;;;28.50;43.40;;;;;;7374658;19;20011;-83
2022/07/19 03:05:23;;;;;;;10.43;3.05;;;28.50;42.80;;;;;;7375117;19;20010;-83
2022/07/19 03:07:52;;;;;;;7.72;2.97;;;28.50;42.30;;;;;;7371699;19;20462;-83
2022/07/19 03:10:21;;;;;;;10.43;3.13;;;28.50;42.00;;;;;;7374630;19;20345;-84
2022/07/19 03:12:50;;;;;;;11.18;3.10;;;28.50;42.20;;;;;;7374515;19;20035;-83
2022/07/19 03:15:18;;;;;;;9.05;2.92;;;28.50;42.30;;;;;;7375445;19;20385;-83
2022/07/19 03:17:50;;;;;;;7.38;2.92;;;28.40;42.30;;;;;;7398739;19;20086;-83
2022/07/19 03:20:19;;;;;;;5.53;2.78;;;28.40;42.40;;;;;;7384876;19;20086;-83
2022/07/19 03:22:47;;;;;;;11.63;3.35;;;28.40;42.10;;;;;;7404466;19;20014;-84
2022/07/19 03:25:16;;;;;;;9.20;3.30;;;28.30;42.00;;;;;;7398254;19;20325;-83
2022/07/19 03:27:45;;;;;;;8.25;3.42;;;28.30;43.10;;;;;;7387649;19;20015;-83
2022/07/19 03:30:14;;;;;;;9.32;3.20;;;28.30;42.20;;;;;;7403998;19;20038;-83
2022/07/19 03:32:43;;;;;;;11.90;3.28;;;28.30;41.70;;;;;;7379099;19;20106;-83
2022/07/19 03:35:19;;;;;;;8.63;3.22;;;28.20;41.90;;;;;;7374065;19;20018;-83
2022/07/19 03:37:48;;;;;;;7.90;3.00;;;28.10;41.90;;;;;;7373758;19;20018;-83
2022/07/19 03:40:17;;;;;;;10.50;2.90;;;28.10;42.00;;;;;;7374482;19;20085;-83
2022/07/19 03:42:45;;;;;;;7.90;3.22;;;28.10;42.30;;;;;;7374167;19;20089;-83
2022/07/19 03:45:14;;;;;;;8.82;2.78;;;28.10;42.10;;;;;;7395504;19;20018;-83
2022/07/19 03:47:43;;;;;;;8.68;2.90;;;28.10;42.20;;;;;;7373471;19;20026;-83
2022/07/19 03:50:15;;;;;;;10.52;3.42;;;28.10;42.50;;;;;;7375022;19;20090;-83
2022/07/19 03:52:43;;;;;;;8.18;2.50;;;28.10;42.80;;;;;;7374520;19;20102;-83
2022/07/19 03:55:12;;;;;;;12.15;3.67;;;28.10;42.20;;;;;;7373280;19;20727;-83
2022/07/19 03:57:41;;;;;;;8.52;3.30;;;28.10;42.90;;;;;;7373461;19;20019;-83
2022/07/19 04:00:11;;;;;;;11.00;3.17;;;28.10;43.60;;;;;;7393715;19;20019;-83
2022/07/19 04:02:40;;;;;;;6.10;3.42;;;28.10;43.80;;;;;;7373529;19;20454;-83
2022/07/19 04:05:11;;;;;;;8.63;3.42;;;28.00;44.00;;;;;;7370350;19;20660;-84
2022/07/19 04:07:43;;;;;;;17.00;3.45;;;28.00;44.20;;;;;;7371756;19;20026;-84
2022/07/19 04:10:13;;;;;;;10.77;3.30;;;27.90;44.00;;;;;;7373600;19;20431;-83
2022/07/19 04:12:41;;;;;;;10.73;3.20;;;27.90;44.20;;;;;;7372265;19;20029;-84
2022/07/19 04:15:11;;;;;;;10.48;3.38;;;27.90;44.10;;;;;;7395806;19;20032;-83
2022/07/19 04:17:40;;;;;;;6.05;3.50;;;27.90;43.30;;;;;;7373945;19;20022;-83
2022/07/19 04:20:09;;;;;;;9.18;3.50;;;27.90;43.90;;;;;;7371839;19;20007;-83
2022/07/19 04:22:38;;;;;;;9.45;3.60;;;27.80;43.90;;;;;;7373912;19;20123;-83
2022/07/19 04:25:14;;;;;;;9.82;3.55;;;27.80;43.70;;;;;;7372896;19;20845;-83
2022/07/19 04:27:43;;;;;;;11.82;3.50;;;27.80;43.50;;;;;;7372166;19;20018;-83
2022/07/19 04:30:13;;;;;;;9.30;2.95;;;27.70;43.20;;;;;;7394533;19;20035;-83
2022/07/19 04:32:41;;;;;;;7.72;3.60;;;27.80;43.20;;;;;;7373559;19;20095;-83
2022/07/19 04:35:11;;;;;;;10.52;3.38;;;27.80;43.40;;;;;;7379323;19;20035;-84
2022/07/19 04:37:41;;;;;;;15.38;3.45;;;27.70;43.10;;;;;;7381849;19;20078;-84
2022/07/19 04:40:18;;;;;;;11.75;3.38;;;27.80;43.40;;;;;;7383153;19;20010;-83
2022/07/19 04:42:46;;;;;;;15.15;3.13;;;27.80;43.40;;;;;;7384077;19;20083;-83
2022/07/19 04:45:15;;;;;;;11.88;3.53;;;27.70;43.30;;;;;;7400767;19;20025;-83
2022/07/19 04:47:44;;;;;;;15.05;3.72;;;27.70;43.40;;;;;;7376612;19;20343;-83
2022/07/19 04:50:13;;;;;;;16.05;3.80;;;27.70;43.40;;;;;;7377524;19;20125;-84
2022/07/19 04:52:41;;;;;;;11.88;3.75;;;27.70;43.60;;;;;;7378316;19;20028;-84
2022/07/19 04:55:14;;;;;;;8.77;3.28;;;27.80;43.60;;;;;;7380394;19;20007;-85
2022/07/19 04:57:43;;;;;;;15.07;4.05;;;27.80;43.70;;;;;;7381301;19;20019;-85
2022/07/19 05:00:13;;;;;;;13.85;3.60;;;27.80;43.80;;;;;;7400217;19;20626;-85
2022/07/19 05:02:42;;;;;;;13.75;3.65;;;27.80;44.00;;;;;;7376746;19;20022;-84
2022/07/19 05:05:13;;;;;;;10.75;3.70;;;27.80;44.70;;;;;;7377727;19;20090;-85
2022/07/19 05:07:44;;;;;;;8.88;3.58;;;27.80;44.20;;;;;;7377783;19;20018;-83
2022/07/19 05:10:15;;;;;;;12.55;3.95;;;27.80;44.20;;;;;;7380954;19;20010;-83
2022/07/19 05:12:44;;;;;;;8.90;3.53;;;27.80;43.60;;;;;;7380893;19;20074;-84
2022/07/19 05:15:13;;;;;;;9.95;3.40;;;27.90;44.10;;;;;;7400491;19;20024;-84
2022/07/19 05:17:43;;;;;;;18.27;3.95;;;27.90;44.40;;;;;;7379049;19;20018;-84
2022/07/19 05:20:15;;;;;;;16.10;3.60;;;27.80;44.50;;;;;;7377320;19;20085;-84
2022/07/19 05:22:47;;;;;;;8.88;3.47;;;27.80;44.60;;;;;;7381026;19;20014;-84
2022/07/19 05:25:19;;;;;;;9.25;3.13;;;27.80;44.70;;;;;;7385448;19;20090;-84
2022/07/19 05:27:48;;;;;;;12.40;3.80;;;27.90;44.70;;;;;;7387795;19;20018;-84
2022/07/19 05:30:17;;;;;;;17.38;3.45;;;27.90;44.70;;;;;;7394931;19;20010;-84
2022/07/19 05:32:46;;;;;;;12.57;3.65;;;28.00;44.80;;;;;;7410895;19;20014;-84
2022/07/19 05:35:15;;;;;;;21.25;3.60;;;28.10;44.80;;;;;;7399122;19;20015;-84
2022/07/19 05:37:44;;;;;;;11.30;3.33;;;28.00;44.80;;;;;;7404277;19;20025;-84
2022/07/19 05:40:13;;;;;;;10.10;3.30;;;28.10;45.60;;;;;;7393966;19;20019;-83
2022/07/19 05:42:45;;;;;;;9.60;3.42;;;28.10;44.90;;;;;;7404227;19;20116;-84
2022/07/19 05:45:13;;;;;;;13.23;3.60;;;28.10;45.00;;;;;;7424198;19;20015;-84
2022/07/19 05:47:42;;;;;;;13.48;3.83;;;28.10;44.90;;;;;;7409465;19;20025;-85
2022/07/19 05:50:11;;;;;;;11.63;3.63;;;28.10;44.80;;;;;;7409667;19;20014;-85
2022/07/19 05:52:40;;;;;;;11.88;3.55;;;28.20;45.00;;;;;;7408616;19;20014;-85
2022/07/19 05:55:10;;;;;;;15.02;3.17;;;28.30;45.30;;;;;;7408932;19;20015;-84
2022/07/19 05:57:38;;;;;;;11.50;3.50;;;28.30;45.20;;;;;;7397854;19;20023;-84
2022/07/19 06:00:14;;;;;;;12.75;3.90;;;28.40;44.90;;;;;;7407442;19;20062;-84
2022/07/19 06:02:43;;;;;;;10.10;3.80;;;28.50;44.50;;;;;;7385494;19;20010;-85
2022/07/19 06:05:12;;;;;;;16.50;3.70;;;28.50;43.90;;;;;;7387926;19;20028;-84
2022/07/19 06:07:41;;;;;;;14.55;3.67;;;28.60;43.40;;;;;;7379893;19;20074;-85
2022/07/19 06:10:11;;;;;;;18.10;3.65;;;28.70;43.20;;;;;;7379664;19;20035;-82
2022/07/19 06:12:39;;;;;;;16.10;3.88;;;28.80;42.70;;;;;;7374285;19;20014;-82
2022/07/19 06:15:12;;;;;;;18.02;3.92;;;28.90;42.30;;;;;;7395463;19;20049;-83
2022/07/19 06:17:44;;;;;;;17.55;3.83;;;28.90;42.20;;;;;;7376430;19;20015;-82
2022/07/19 06:20:14;;;;;;;18.40;3.72;;;29.00;42.10;;;;;;7376596;19;20065;-82
2022/07/19 06:22:42;;;;;;;18.67;4.10;;;29.10;41.10;;;;;;7373935;19;20054;-82
2022/07/19 06:25:11;;;;;;;14.70;3.75;;;29.20;40.50;;;;;;7374933;19;20014;-82
2022/07/19 06:27:40;;;;;;;15.90;3.40;;;29.20;40.50;;;;;;7375104;19;20540;-83
2022/07/19 06:30:12;;;;;;;9.90;4.13;;;29.30;40.40;;;;;;7394444;19;20388;-82
2022/07/19 06:32:41;;;;;;;12.35;3.28;;;29.40;40.10;;;;;;7376102;19;20090;-83
2022/07/19 06:35:11;;;;;;;9.18;3.38;;;29.40;39.30;;;;;;7373671;19;20711;-82
2022/07/19 06:37:39;;;;;;;16.15;3.88;;;29.50;38.80;;;;;;7373746;19;20333;-82
2022/07/19 06:40:10;;;;;;;13.40;3.47;;;29.60;38.50;;;;;;7373509;19;20022;-82
2022/07/19 06:42:38;;;;;;;10.90;3.78;;;29.60;38.10;;;;;;7376972;19;20019;-86
2022/07/19 06:45:11;;;;;;;12.65;3.70;;;29.70;38.00;;;;;;7398520;19;20007;-84
2022/07/19 06:47:40;;;;;;;11.77;3.60;;;29.70;37.90;;;;;;7369419;19;20710;-82
2022/07/19 06:50:10;;;;;;;10.65;3.50;;;29.80;38.00;;;;;;7376400;19;20094;-87
2022/07/19 06:52:39;;;;;;;12.32;3.65;;;29.80;37.80;;;;;;7322253;19;20018;-85
2022/07/19 06:55:11;;;;;;;9.77;3.25;;;29.90;37.70;;;;;;7395706;19;20022;-85
2022/07/19 06:57:41;;;;;;;13.75;3.88;;;30.00;37.60;;;;;;7376753;19;20568;-85
2022/07/19 07:00:14;;;;;;;9.50;3.50;;;30.00;37.60;;;;;;7398246;19;20314;-86
2022/07/19 07:02:44;;;;;;;9.77;3.70;;;30.00;37.30;;;;;;7383497;19;20019;-85
2022/07/19 07:05:14;;;;;;;11.10;3.90;;;30.00;37.20;;;;;;7374950;19;20545;-91
2022/07/19 07:07:43;;;;;;;16.48;4.05;;;30.10;37.30;;;;;;7368262;19;20747;-81
2022/07/19 07:10:12;;;;;;;9.98;3.55;;;30.10;37.30;;;;;;7371195;19;20018;-79
2022/07/19 07:12:40;;;;;;;15.02;3.88;;;30.20;37.30;;;;;;7374902;19;20076;-78
2022/07/19 07:15:12;;;;;;;16.60;4.03;;;30.20;37.50;;;;;;7393046;19;20015;-80
2022/07/19 07:17:41;;;;;;;9.18;4.13;;;30.20;37.20;;;;;;7382096;19;20047;-81
2022/07/19 07:20:12;;;;;;;13.77;4.05;;;30.30;37.20;;;;;;7408507;19;20017;-80
2022/07/19 07:22:54;;;;;;;9.45;4.07;;;30.30;37.20;;;;;;7392075;19;20010;-81
2022/07/19 07:25:23;;;;;;;18.58;4.88;;;30.30;36.90;;;;;;7381177;19;20041;-81
2022/07/19 07:27:52;;;;;;;13.30;4.90;;;30.40;36.90;;;;;;7378995;19;20695;-79
2022/07/19 07:30:23;;;;;;;10.85;3.85;;;30.40;36.80;;;;;;7375295;19;20019;-80
2022/07/19 07:32:52;;;;;;;13.70;4.13;;;30.40;36.70;;;;;;7393650;19;20334;-80
2022/07/19 07:35:21;;;;;;;13.20;4.30;;;30.50;36.90;;;;;;7370196;19;20018;-80
2022/07/19 07:37:49;;;;;;;11.98;4.30;;;30.60;37.10;;;;;;7370696;19;20010;-81
2022/07/19 07:40:18;;;;;;;12.55;3.92;;;30.60;37.00;;;;;;7371426;19;20082;-79
2022/07/19 07:42:49;;;;;;;16.45;4.20;;;30.60;36.80;;;;;;7369766;19;20010;-79
2022/07/19 07:45:18;;;;;;;11.77;3.65;;;30.60;36.80;;;;;;7369553;19;20022;-81
2022/07/19 07:47:49;;;;;;;9.85;4.32;;;30.70;36.80;;;;;;7393014;19;20097;-80
2022/07/19 07:50:18;;;;;;;13.90;3.97;;;30.60;36.40;;;;;;7370677;19;20015;-79
2022/07/19 07:52:47;;;;;;;11.32;4.00;;;30.70;36.50;;;;;;7369572;19;20015;-79
2022/07/19 07:55:16;;;;;;;17.13;4.05;;;30.80;36.70;;;;;;7369082;19;20026;-81
2022/07/19 07:57:44;;;;;;;12.05;4.53;;;30.80;36.50;;;;;;7370513;19;20131;-81
2022/07/19 08:00:15;;;;;;;15.27;4.03;;;30.80;36.50;;;;;;7390179;19;20122;-80
2022/07/19 08:02:46;;;;;;;16.15;4.03;;;30.80;36.40;;;;;;7369095;19;20330;-83
2022/07/19 08:05:18;;;;;;;;;;;30.90;36.40;;;;;;7369954;19;20014;-81
2022/07/19 08:07:47;;;;;;;16.50;4.32;;;31.00;36.50;;;;;;7371372;19;20515;-82
2022/07/19 08:10:16;;;;;;;15.50;4.07;;;31.00;36.30;;;;;;7374729;19;20018;-82
2022/07/19 08:12:44;;;;;;;12.38;4.25;;;31.00;36.10;;;;;;7378774;19;20018;-81
2022/07/19 08:15:13;;;;;;;14.27;4.55;;;31.00;36.30;;;;;;7400685;19;20049;-81
2022/07/19 08:17:42;;;;;;;22.15;5.13;;;31.00;36.20;;;;;;7371498;19;20093;-83
2022/07/19 08:20:12;;;;;;;15.45;4.90;;;31.10;36.20;;;;;;7377251;19;20019;-83
2022/07/19 08:22:44;;;;;;;16.27;4.50;;;31.10;36.20;;;;;;7382202;19;20039;-81
2022/07/19 08:25:16;;;;;;;15.75;3.65;;;31.10;36.20;;;;;;7375682;19;20022;-81
2022/07/19 08:27:45;;;;;;;18.00;4.25;;;31.20;36.00;;;;;;7375434;19;20022;-79
2022/07/19 08:30:15;;;;;;;18.05;4.63;;;31.20;36.00;;;;;;7396027;19;20540;-80
2022/07/19 08:32:44;;;;;;;13.02;4.22;;;31.20;35.70;;;;;;7376523;19;20027;-80
2022/07/19 08:35:13;;;;;;;19.40;4.65;;;31.30;35.70;;;;;;7374369;19;20025;-80
2022/07/19 08:37:45;;;;;;;15.13;3.83;;;31.30;35.60;;;;;;7378850;19;20114;-79
2022/07/19 08:40:14;;;;;;;11.95;4.57;;;31.30;35.50;;;;;;7379405;19;20019;-79
2022/07/19 08:42:43;;;;;;;13.38;5.50;;;31.30;35.50;;;;;;7375926;19;20011;-80
2022/07/19 08:45:13;;;;;;;14.68;4.22;;;31.40;35.40;;;;;;7397605;19;20018;-80
2022/07/19 08:47:42;;;;;;;17.33;4.60;;;31.40;35.40;;;;;;7374566;19;20014;-78
2022/07/19 08:50:13;;;;;;;17.67;4.22;;;31.40;35.60;;;;;;7375104;19;20015;-79
2022/07/19 08:52:45;;;;;;;13.23;4.45;;;31.50;35.40;;;;;;7376436;19;20420;-79
2022/07/19 08:55:14;;;;;;;12.18;4.30;;;31.50;34.90;;;;;;7377595;19;20038;-80
2022/07/19 09:00:24;;;;;;;;;;;31.60;34.80;;;;;;7377955;19;20022;-82
2022/07/19 09:02:55;;;;;;;16.25;4.05;;;31.70;34.80;;;;;;7397676;19;20334;-79
2022/07/19 09:05:24;;;;;;;;;;;31.70;35.40;;;;;;7373898;19;20014;-80
2022/07/19 09:08:10;;;;;;;15.73;4.22;;;31.80;35.00;;;;;;7375697;19;20307;-78
2022/07/19 09:10:41;;;;;;;13.07;4.50;;;31.80;34.50;;;;;;7376233;19;20011;-79
2022/07/19 09:13:10;;;;;;;;;;;31.90;34.20;;;;;;7374011;19;20041;-80
2022/07/19 09:15:57;;;;;;;10.85;4.63;;;31.90;34.10;;;;;;7376268;19;20523;-79
2022/07/19 09:18:27;;;;;;;15.38;4.38;;;31.90;34.10;;;;;;7377830;19;20123;-80
2022/07/19 09:20:57;;;;;;;14.60;4.50;;;31.90;33.90;;;;;;7399190;19;20121;-82
2022/07/19 09:23:30;;;;;;;11.80;3.60;;;32.00;34.00;;;;;;7385422;19;20014;-79
2022/07/19 09:26:00;;;;;;;15.80;4.25;;;32.00;33.60;;;;;;7374836;19;20015;-80
2022/07/19 09:28:31;;;;;;;9.73;4.20;;;32.00;33.40;;;;;;7372081;19;20022;-82
2022/07/19 09:31:02;;;;;;;13.90;4.80;;;32.00;33.40;;;;;;7374437;19;20014;-79
2022/07/19 09:33:32;;;;;;;12.60;4.07;;;32.10;33.40;;;;;;7373232;19;20021;-80
2022/07/19 09:36:03;;;;;;;18.63;4.47;;;32.00;33.60;;;;;;7394458;19;20094;-80
2022/07/19 09:38:42;;;;;;;13.30;4.45;;;32.00;33.60;;;;;;7375731;19;20035;-81
2022/07/19 09:41:12;;;;;;;20.13;4.88;;;32.10;33.50;;;;;;7379773;19;20017;-82
2022/07/19 09:43:55;;;;;;;17.05;4.25;;;32.10;33.50;;;;;;7377701;19;20022;-81
2022/07/19 09:46:31;;;;;;;9.75;4.20;;;32.10;33.50;;;;;;7374890;19;20039;-82
2022/07/19 09:49:09;;;;;;;11.27;4.10;;;32.20;32.90;;;;;;7375900;19;20101;-81
2022/07/19 09:51:39;;;;;;;22.10;4.38;;;32.20;32.90;;;;;;7373579;19;20000;-83
2022/07/19 09:54:13;;;;;;;13.55;4.18;;;32.30;33.20;;;;;;7392596;19;20105;-81
2022/07/19 09:56:44;;;;;;;12.68;4.15;;;32.30;33.70;;;;;;7375848;19;20101;-82
2022/07/19 10:02:14;;;;;;;15.48;4.05;;;32.40;33.00;;;;;;7376572;19;20314;-82
2022/07/19 10:04:44;;;;;;;9.82;4.05;;;32.50;32.80;;;;;;7398115;19;20038;-83
2022/07/19 10:07:23;;;;;;;14.50;4.18;;;32.60;32.50;;;;;;7373585;19;20025;-79
2022/07/19 10:09:55;;;;;;;12.80;4.25;;;32.60;31.90;;;;;;7374335;19;20031;-80
2022/07/19 10:12:37;;;;;;;13.35;4.53;;;32.70;31.80;;;;;;7375448;19;20014;-80
2022/07/19 10:15:08;;;;;;;13.80;4.75;;;32.80;32.00;;;;;;7402699;19;20023;-82
2022/07/19 10:17:42;;;;;;;17.95;4.63;;;32.80;31.80;;;;;;7375309;19;20015;-80
2022/07/19 10:20:14;;;;;;;14.27;3.80;;;32.90;31.10;;;;;;7374114;19;20025;-80
2022/07/19 10:22:45;;;;;;;13.93;4.35;;;33.00;30.80;;;;;;7376751;19;20035;-80
2022/07/19 10:25:18;;;;;;;13.68;3.70;;;33.10;30.40;;;;;;7376161;19;20041;-79
2022/07/19 10:27:50;;;;;;;15.60;3.97;;;33.10;29.60;;;;;;7375571;19;20348;-80
2022/07/19 10:30:22;;;;;;;13.77;4.40;;;33.20;29.70;;;;;;7373127;19;20046;-80
2022/07/19 10:32:58;;;;;;;11.65;4.32;;;33.30;29.40;;;;;;7398751;19;20018;-81
2022/07/19 10:35:34;;;;;;;8.18;3.90;;;33.30;29.10;;;;;;7375707;19;20047;-80
2022/07/19 10:38:14;;;;;;;11.15;4.00;;;33.40;29.10;;;;;;7376243;19;20019;-81
2022/07/19 10:40:49;;;;;;;9.32;3.30;;;33.50;29.10;;;;;;7376789;19;20018;-81
2022/07/19 10:43:20;;;;;;;10.10;3.63;;;33.50;29.20;;;;;;7375094;19;20022;-80
2022/07/19 10:46:11;;;;;;;8.27;4.07;;;33.60;29.10;;;;;;7376168;19;20044;-79
2022/07/19 10:48:41;;;;;;;12.93;3.85;;;33.70;29.10;;;;;;7327528;19;20019;-79
2022/07/19 10:51:13;;;;;;;12.30;4.15;;;33.80;28.90;;;;;;7398930;19;20018;-79
2022/07/19 10:54:05;;;;;;;20.50;4.50;;;34.00;28.50;;;;;;7386408;19;20011;-79
2022/07/19 10:56:57;;;;;;;13.50;4.07;;;34.00;28.30;;;;;;7384255;19;20018;-79
2022/07/19 10:59:44;;;;;;;18.10;3.80;;;34.10;28.50;;;;;;7394383;19;20025;-79
2022/07/19 11:02:26;;;;;;;14.88;3.63;;;34.20;27.90;;;;;;7405980;19;20015;-79
2022/07/19 11:04:56;;;;;;;9.25;4.07;;;34.30;27.80;;;;;;7389116;19;20027;-80
2022/07/19 11:07:25;;;;;;;17.17;3.83;;;34.40;27.80;;;;;;7380631;19;20033;-79
2022/07/19 11:09:57;;;;;;;13.73;3.80;;;34.50;27.70;;;;;;7376202;19;20307;-80
2022/07/19 11:12:36;;;;;;;15.98;4.75;;;34.50;27.40;;;;;;7373584;19;20412;-80
2022/07/19 11:15:09;;;;;;;10.82;3.72;;;34.60;27.60;;;;;;7396262;19;20031;-80
2022/07/19 11:17:37;;;;;;;12.88;4.00;;;34.70;27.70;;;;;;7374938;19;20047;-79
2022/07/19 11:20:16;;;;;;;8.63;3.50;;;34.70;27.80;;;;;;7376256;19;20026;-79
2022/07/19 11:22:47;;;;;;;13.23;3.50;;;34.80;27.80;;;;;;7374126;19;20022;-79
2022/07/19 11:25:18;;;;;;;13.13;3.60;;;34.90;27.80;;;;;;7374261;19;20436;-79
2022/07/19 11:27:54;;;;;;;12.80;3.83;;;35.00;27.60;;;;;;7375735;19;20026;-81
2022/07/19 11:30:25;;;;;;;10.15;3.60;;;35.00;27.50;;;;;;7372220;19;20026;-78
2022/07/19 11:32:55;;;;;;;11.15;3.58;;;35.10;28.30;;;;;;7391165;19;20078;-78
2022/07/19 11:35:24;;;;;;;7.45;3.75;;;35.20;27.60;;;;;;7366858;19;20025;-78
2022/07/19 11:37:55;;;;;;;10.52;3.75;;;35.30;27.60;;;;;;7362020;19;20377;-79
2022/07/19 11:40:25;;;;;;;13.32;4.28;;;35.30;27.50;;;;;;7368140;19;20006;-80
2022/07/19 11:42:56;;;;;;;5.53;3.47;;;35.40;27.40;;;;;;7375691;19;20022;-79
2022/07/19 11:45:28;;;;;;;10.90;3.80;;;35.40;27.40;;;;;;7374391;19;20110;-80
2022/07/19 11:48:00;;;;;;;12.18;3.78;;;35.50;27.60;;;;;;7396545;19;20097;-80
2022/07/19 11:50:30;;;;;;;12.45;4.55;;;35.60;27.50;;;;;;7372527;19;20086;-79
2022/07/19 11:53:00;;;;;;;15.77;4.13;;;35.60;27.50;;;;;;7378496;19;20055;-79
2022/07/19 11:55:31;;;;;;;9.13;3.93;;;35.70;27.50;;;;;;7373463;19;20835;-80
2022/07/19 11:58:07;;;;;;;16.55;4.05;;;35.80;27.60;;;;;;7375860;19;20018;-79
2022/07/19 12:00:37;;;;;;;16.08;4.15;;;35.80;27.50;;;;;;7374524;19;20612;-80
2022/07/19 12:03:08;;;;;;;12.93;4.05;;;35.80;27.70;;;;;;7397617;19;20010;-79
2022/07/19 12:05:40;;;;;;;9.35;3.72;;;35.90;27.70;;;;;;7375226;19;20018;-81
2022/07/19 12:08:11;;;;;;;21.05;4.60;;;35.90;27.60;;;;;;7377134;19;20089;-81
2022/07/19 12:10:44;;;;;;;15.35;4.10;;;36.00;27.70;;;;;;7372709;19;20115;-81
2022/07/19 12:13:16;;;;;;;14.32;4.03;;;36.10;27.80;;;;;;7375975;19;20019;-81
2022/07/19 12:15:54;;;;;;;12.88;3.97;;;36.10;27.40;;;;;;7378253;19;20090;-81
2022/07/19 12:18:24;;;;;;;16.83;4.28;;;36.10;27.40;;;;;;7377733;19;20445;-82
2022/07/19 12:21:21;;;;;;;9.27;3.80;;;36.20;27.60;;;;;;7397133;19;20090;-81
2022/07/19 12:24:12;;;;;;;9.05;3.78;;;36.20;27.50;;;;;;7374587;19;20026;-80
2022/07/19 12:26:43;;;;;;;14.73;4.90;;;36.30;27.80;;;;;;7377185;19;20074;-80
2022/07/19 12:29:29;;;;;;;15.57;3.85;;;36.30;27.40;;;;;;7381629;19;20027;-81
2022/07/19 12:32:00;;;;;;;16.55;3.63;;;36.40;27.20;;;;;;7379926;19;20059;-80
2022/07/19 12:34:29;;;;;;;14.82;4.13;;;36.50;27.20;;;;;;7379082;19;20014;-81
2022/07/19 12:36:58;;;;;;;10.35;3.90;;;36.60;26.90;;;;;;7378206;19;20019;-81
2022/07/19 12:39:30;;;;;;;18.27;4.10;;;36.60;27.00;;;;;;7377764;19;20102;-81
2022/07/19 12:42:03;;;;;;;22.35;4.30;;;36.70;26.90;;;;;;7398009;19;20023;-81
2022/07/19 12:44:36;;;;;;;14.52;3.83;;;36.70;26.80;;;;;;7376004;19;20021;-81
2022/07/19 12:47:05;;;;;;;11.10;3.45;;;36.80;26.80;;;;;;7382219;19;20027;-81
2022/07/19 12:49:46;;;;;;;15.25;4.05;;;36.80;26.70;;;;;;7388802;19;20054;-81
2022/07/19 12:52:15;;;;;;;12.25;4.03;;;36.90;26.80;;;;;;7377562;19;20007;-81
2022/07/19 12:54:44;;;;;;;14.15;4.32;;;37.00;27.00;;;;;;7373632;19;20082;-81
2022/07/19 12:57:13;;;;;;;15.30;4.68;;;37.10;27.10;;;;;;7400352;19;20039;-81
2022/07/19 12:59:44;;;;;;;17.40;4.80;;;37.20;27.70;;;;;;7376312;19;20035;-80
2022/07/19 13:02:16;;;;;;;13.52;4.68;;;37.20;28.10;;;;;;7378191;19;20018;-81
2022/07/19 13:04:46;;;;;;;6.60;4.57;;;37.30;27.80;;;;;;7377041;19;20007;-80